sensor_id;sensor_type;location;lat;lon;timestamp;pressure;altitude;pressure_sealevel;temperature;humidity
20394;BME280;10356;50.544;9.642;2023-05-23T00:01:57;98015.13;;;16.03;100.00
20394;BME280;10356;50.544;9.642;2023-05-23T00:04:24;98019.50;;;15.94;100.00
20394;BME280;10356;50.544;9.642;2023-05-23T00:06:51;98021.38;;;16.02;100.00
20394;BME280;10356;50.544;9.642;2023-05-23T00:09:18;98020.16;;;15.96;100.00
20394;BME280;10356;50.544;9.642;2023-05-23T00:11:45;98028.59;;;16.00;100.00
20394;BME280;10356;50.544;9.642;2023-05-23T00:14:13;98024.00;;;16.02;100.00
20394;BME280;10356;50.544;9.642;2023-05-23T00:16:39;98023.16;;;16.01;100.00
20394;BME280;10356;50.544;9.642;2023-05-23T00:19:07;98023.38;;;16.08;100.00
20394;BME280;10356;50.544;9.642;2023-05-23T00:21:34;98028.28;;;16.11;100.00
20394;BME280;10356;50.544;9.642;2023-05-23T00:24:00;98033.25;;;16.14;100.00
20394;BME280;10356;50.544;9.642;2023-05-23T00:26:28;98031.25;;;16.08;100.00
20394;BME280;10356;50.544;9.642;2023-05-23T00:28:56;98027.94;;;15.98;100.00
20394;BME280;10356;50.544;9.642;2023-05-23T00:31:23;98030.38;;;15.99;100.00
20394;BME280;10356;50.544;9.642;2023-05-23T00:33:49;98032.84;;;16.01;100.00
20394;BME280;10356;50.544;9.642;2023-05-23T00:36:16;98040.06;;;15.98;100.00
20394;BME280;10356;50.544;9.642;2023-05-23T00:38:43;98043.31;;;15.92;100.00
20394;BME280;10356;50.544;9.642;2023-05-23T00:41:10;98035.78;;;15.89;100.00
20394;BME280;10356;50.544;9.642;2023-05-23T00:43:37;98036.41;;;15.83;100.00
20394;BME280;10356;50.544;9.642;2023-05-23T00:46:05;98037.56;;;15.89;100.00
20394;BME280;10356;50.544;9.642;2023-05-23T00:48:32;98036.06;;;15.86;100.00
20394;BME280;10356;50.544;9.642;2023-05-23T00:50:59;98040.19;;;15.89;100.00
20394;BME280;10356;50.544;9.642;2023-05-23T00:53:26;98043.50;;;15.91;100.00
20394;BME280;10356;50.544;9.642;2023-05-23T00:55:52;98046.06;;;15.83;100.00
20394;BME280;10356;50.544;9.642;2023-05-23T00:58:19;98048.88;;;15.81;100.00
20394;BME280;10356;50.544;9.642;2023-05-23T01:00:46;98038.34;;;15.81;100.00
20394;BME280;10356;50.544;9.642;2023-05-23T01:03:15;98041.44;;;15.77;100.00
20394;BME280;10356;50.544;9.642;2023-05-23T01:05:43;98059.16;;;15.75;100.00
20394;BME280;10356;50.544;9.642;2023-05-23T01:08:10;98062.75;;;15.74;100.00
20394;BME280;10356;50.544;9.642;2023-05-23T01:10:36;98065.22;;;15.67;100.00
20394;BME280;10356;50.544;9.642;2023-05-23T01:13:12;98061.44;;;15.70;100.00
20394;BME280;10356;50.544;9.642;2023-05-23T01:15:45;98061.59;;;15.68;100.00
20394;BME280;10356;50.544;9.642;2023-05-23T01:18:17;98056.94;;;15.62;100.00
20394;BME280;10356;50.544;9.642;2023-05-23T01:20:48;98066.78;;;15.60;100.00
20394;BME280;10356;50.544;9.642;2023-05-23T01:23:35;98063.50;;;15.58;100.00
20394;BME280;10356;50.544;9.642;2023-05-23T01:26:21;98055.78;;;15.57;100.00
20394;BME280;10356;50.544;9.642;2023-05-23T01:28:58;98060.72;;;15.60;100.00
20394;BME280;10356;50.544;9.642;2023-05-23T01:31:31;98058.84;;;15.52;100.00
20394;BME280;10356;50.544;9.642;2023-05-23T01:33:59;98056.84;;;15.46;100.00
20394;BME280;10356;50.544;9.642;2023-05-23T01:36:27;98053.72;;;15.43;100.00
20394;BME280;10356;50.544;9.642;2023-05-23T01:38:53;98050.16;;;15.34;100.00
20394;BME280;10356;50.544;9.642;2023-05-23T01:41:20;98056.38;;;15.33;100.00
20394;BME280;10356;50.544;9.642;2023-05-23T01:43:46;98056.38;;;15.33;100.00
20394;BME280;10356;50.544;9.642;2023-05-23T01:46:15;98051.38;;;15.22;100.00
20394;BME280;10356;50.544;9.642;2023-05-23T01:48:42;98043.69;;;15.21;100.00
20394;BME280;10356;50.544;9.642;2023-05-23T01:51:09;98048.38;;;15.17;100.00
20394;BME280;10356;50.544;9.642;2023-05-23T01:53:35;98049.53;;;15.14;100.00
20394;BME280;10356;50.544;9.642;2023-05-23T01:56:02;98046.97;;;15.05;100.00
20394;BME280;10356;50.544;9.642;2023-05-23T01:58:29;98046.63;;;15.00;100.00
20394;BME280;10356;50.544;9.642;2023-05-23T02:00:56;98051.47;;;14.95;100.00
20394;BME280;10356;50.544;9.642;2023-05-23T02:03:24;98055.31;;;14.83;100.00
20394;BME280;10356;50.544;9.642;2023-05-23T02:05:50;98048.59;;;14.80;100.00
20394;BME280;10356;50.544;9.642;2023-05-23T02:08:17;98056.06;;;14.75;100.00
20394;BME280;10356;50.544;9.642;2023-05-23T02:10:43;98057.19;;;14.73;100.00
20394;BME280;10356;50.544;9.642;2023-05-23T02:13:10;98055.81;;;14.69;100.00
20394;BME280;10356;50.544;9.642;2023-05-23T02:15:36;98060.38;;;14.67;100.00
20394;BME280;10356;50.544;9.642;2023-05-23T02:18:03;98066.63;;;14.66;100.00
20394;BME280;10356;50.544;9.642;2023-05-23T02:20:31;98064.00;;;14.66;100.00
20394;BME280;10356;50.544;9.642;2023-05-23T02:22:58;98056.97;;;14.66;100.00
20394;BME280;10356;50.544;9.642;2023-05-23T02:25:25;98070.88;;;14.67;100.00
20394;BME280;10356;50.544;9.642;2023-05-23T02:27:51;98071.03;;;14.65;100.00
20394;BME280;10356;50.544;9.642;2023-05-23T02:30:18;98069.41;;;14.64;100.00
20394;BME280;10356;50.544;9.642;2023-05-23T02:32:44;98074.78;;;14.63;100.00
20394;BME280;10356;50.544;9.642;2023-05-23T02:35:11;98077.41;;;14.63;100.00
20394;BME280;10356;50.544;9.642;2023-05-23T02:37:39;98071.19;;;14.64;100.00
20394;BME280;10356;50.544;9.642;2023-05-23T02:40:06;98074.34;;;14.67;100.00
20394;BME280;10356;50.544;9.642;2023-05-23T02:42:33;98079.16;;;14.72;100.00
20394;BME280;10356;50.544;9.642;2023-05-23T02:44:59;98076.53;;;14.72;100.00
20394;BME280;10356;50.544;9.642;2023-05-23T02:47:26;98080.50;;;14.76;100.00
20394;BME280;10356;50.544;9.642;2023-05-23T02:49:53;98080.50;;;14.76;100.00
20394;BME280;10356;50.544;9.642;2023-05-23T02:52:19;98080.84;;;14.81;100.00
20394;BME280;10356;50.544;9.642;2023-05-23T02:54:47;98080.41;;;14.85;100.00
20394;BME280;10356;50.544;9.642;2023-05-23T02:57:14;98074.06;;;14.88;100.00
20394;BME280;10356;50.544;9.642;2023-05-23T02:59:41;98076.38;;;14.91;100.00
20394;BME280;10356;50.544;9.642;2023-05-23T03:02:07;98079.81;;;14.91;100.00
20394;BME280;10356;50.544;9.642;2023-05-23T03:04:34;98078.03;;;14.92;100.00
20394;BME280;10356;50.544;9.642;2023-05-23T03:07:02;98083.28;;;14.92;100.00
20394;BME280;10356;50.544;9.642;2023-05-23T03:09:28;98079.53;;;14.94;100.00
20394;BME280;10356;50.544;9.642;2023-05-23T03:11:56;98080.88;;;14.98;100.00
20394;BME280;10356;50.544;9.642;2023-05-23T03:14:23;98080.06;;;14.98;100.00
20394;BME280;10356;50.544;9.642;2023-05-23T03:16:49;98075.41;;;14.92;100.00
20394;BME280;10356;50.544;9.642;2023-05-23T03:19:15;98073.38;;;14.86;100.00
20394;BME280;10356;50.544;9.642;2023-05-23T03:21:42;98070.00;;;14.76;100.00
20394;BME280;10356;50.544;9.642;2023-05-23T03:24:08;98076.38;;;14.73;100.00
20394;BME280;10356;50.544;9.642;2023-05-23T03:26:35;98078.47;;;14.70;100.00
20394;BME280;10356;50.544;9.642;2023-05-23T03:29:03;98083.63;;;14.62;100.00
20394;BME280;10356;50.544;9.642;2023-05-23T03:31:30;98085.84;;;14.57;100.00
20394;BME280;10356;50.544;9.642;2023-05-23T03:33:58;98083.69;;;14.52;100.00
20394;BME280;10356;50.544;9.642;2023-05-23T03:36:24;98087.59;;;14.48;100.00
20394;BME280;10356;50.544;9.642;2023-05-23T03:38:53;98092.94;;;14.47;100.00
20394;BME280;10356;50.544;9.642;2023-05-23T03:41:19;98091.31;;;14.46;100.00
20394;BME280;10356;50.544;9.642;2023-05-23T03:43:46;98087.72;;;14.47;100.00
20394;BME280;10356;50.544;9.642;2023-05-23T03:46:14;98097.53;;;14.45;100.00
20394;BME280;10356;50.544;9.642;2023-05-23T03:48:40;98094.22;;;14.43;100.00
20394;BME280;10356;50.544;9.642;2023-05-23T03:51:07;98100.81;;;14.47;100.00
20394;BME280;10356;50.544;9.642;2023-05-23T03:53:33;98111.88;;;14.50;100.00
20394;BME280;10356;50.544;9.642;2023-05-23T03:56:00;98108.66;;;14.56;100.00
20394;BME280;10356;50.544;9.642;2023-05-23T03:58:26;98109.53;;;14.65;100.00
20394;BME280;10356;50.544;9.642;2023-05-23T04:00:53;98107.91;;;14.64;100.00
20394;BME280;10356;50.544;9.642;2023-05-23T04:03:20;98116.81;;;14.71;100.00
20394;BME280;10356;50.544;9.642;2023-05-23T04:05:47;98114.06;;;14.72;100.00
20394;BME280;10356;50.544;9.642;2023-05-23T04:08:14;98122.03;;;14.80;100.00
20394;BME280;10356;50.544;9.642;2023-05-23T04:10:40;98127.34;;;14.88;100.00
20394;BME280;10356;50.544;9.642;2023-05-23T04:13:07;98129.50;;;14.93;100.00
20394;BME280;10356;50.544;9.642;2023-05-23T04:15:33;98134.16;;;14.99;100.00
20394;BME280;10356;50.544;9.642;2023-05-23T04:18:00;98129.47;;;15.02;100.00
20394;BME280;10356;50.544;9.642;2023-05-23T04:20:29;98133.81;;;15.11;100.00
20394;BME280;10356;50.544;9.642;2023-05-23T04:22:55;98135.66;;;15.19;100.00
20394;BME280;10356;50.544;9.642;2023-05-23T04:25:22;98137.41;;;15.28;100.00
20394;BME280;10356;50.544;9.642;2023-05-23T04:27:48;98141.00;;;15.27;100.00
20394;BME280;10356;50.544;9.642;2023-05-23T04:30:15;98146.13;;;15.29;100.00
20394;BME280;10356;50.544;9.642;2023-05-23T04:32:42;98150.22;;;15.31;100.00
20394;BME280;10356;50.544;9.642;2023-05-23T04:35:09;98150.53;;;15.28;100.00
20394;BME280;10356;50.544;9.642;2023-05-23T04:37:37;98145.88;;;15.22;100.00
20394;BME280;10356;50.544;9.642;2023-05-23T04:40:04;98158.03;;;15.23;100.00
20394;BME280;10356;50.544;9.642;2023-05-23T04:42:31;98161.03;;;15.28;100.00
20394;BME280;10356;50.544;9.642;2023-05-23T04:44:58;98160.19;;;15.28;100.00
20394;BME280;10356;50.544;9.642;2023-05-23T04:47:26;98160.59;;;15.33;100.00
20394;BME280;10356;50.544;9.642;2023-05-23T04:49:53;98161.09;;;15.36;100.00
20394;BME280;10356;50.544;9.642;2023-05-23T04:52:20;98174.75;;;15.40;100.00
20394;BME280;10356;50.544;9.642;2023-05-23T04:54:48;98178.66;;;15.36;100.00
20394;BME280;10356;50.544;9.642;2023-05-23T04:57:14;98184.22;;;15.33;100.00
20394;BME280;10356;50.544;9.642;2023-05-23T04:59:41;98184.06;;;15.34;100.00
20394;BME280;10356;50.544;9.642;2023-05-23T05:02:07;98189.09;;;15.28;100.00
20394;BME280;10356;50.544;9.642;2023-05-23T05:04:34;98181.44;;;15.34;100.00
20394;BME280;10356;50.544;9.642;2023-05-23T05:07:01;98184.34;;;15.31;100.00
20394;BME280;10356;50.544;9.642;2023-05-23T05:09:28;98188.63;;;15.32;100.00
20394;BME280;10356;50.544;9.642;2023-05-23T05:11:56;98190.00;;;15.36;100.00
20394;BME280;10356;50.544;9.642;2023-05-23T05:14:24;98203.78;;;15.38;100.00
20394;BME280;10356;50.544;9.642;2023-05-23T05:16:50;98196.50;;;15.32;100.00
20394;BME280;10356;50.544;9.642;2023-05-23T05:19:18;98199.81;;;15.34;100.00
20394;BME280;10356;50.544;9.642;2023-05-23T05:21:45;98192.47;;;15.38;100.00
20394;BME280;10356;50.544;9.642;2023-05-23T05:24:11;98204.22;;;15.34;100.00
20394;BME280;10356;50.544;9.642;2023-05-23T05:26:38;98201.84;;;15.40;100.00
20394;BME280;10356;50.544;9.642;2023-05-23T05:29:05;98212.28;;;15.32;100.00
20394;BME280;10356;50.544;9.642;2023-05-23T05:31:32;98207.38;;;15.37;100.00
20394;BME280;10356;50.544;9.642;2023-05-23T05:34:00;98205.75;;;15.36;100.00
20394;BME280;10356;50.544;9.642;2023-05-23T05:36:26;98210.16;;;15.36;100.00
20394;BME280;10356;50.544;9.642;2023-05-23T05:38:52;98213.91;;;15.33;100.00
20394;BME280;10356;50.544;9.642;2023-05-23T05:41:19;98209.31;;;15.35;100.00
20394;BME280;10356;50.544;9.642;2023-05-23T05:43:46;98207.69;;;15.34;100.00
20394;BME280;10356;50.544;9.642;2023-05-23T05:46:14;98210.31;;;15.34;100.00
20394;BME280;10356;50.544;9.642;2023-05-23T05:48:40;98212.78;;;15.45;100.00
20394;BME280;10356;50.544;9.642;2023-05-23T05:51:07;98210.44;;;15.42;100.00
20394;BME280;10356;50.544;9.642;2023-05-23T05:53:33;98215.25;;;15.47;100.00
20394;BME280;10356;50.544;9.642;2023-05-23T05:56:00;98219.50;;;15.48;100.00
20394;BME280;10356;50.544;9.642;2023-05-23T05:58:27;98222.56;;;15.43;100.00
20394;BME280;10356;50.544;9.642;2023-05-23T06:00:53;98231.44;;;15.42;100.00
20394;BME280;10356;50.544;9.642;2023-05-23T06:03:21;98228.09;;;15.40;100.00
20394;BME280;10356;50.544;9.642;2023-05-23T06:05:48;98227.44;;;15.38;100.00
20394;BME280;10356;50.544;9.642;2023-05-23T06:08:15;98229.53;;;15.35;100.00
20394;BME280;10356;50.544;9.642;2023-05-23T06:10:41;98225.47;;;15.40;100.00
20394;BME280;10356;50.544;9.642;2023-05-23T06:13:08;98227.03;;;15.33;100.00
20394;BME280;10356;50.544;9.642;2023-05-23T06:15:34;98237.16;;;15.28;100.00
20394;BME280;10356;50.544;9.642;2023-05-23T06:18:00;98225.84;;;15.28;100.00
20394;BME280;10356;50.544;9.642;2023-05-23T06:20:28;98228.63;;;15.26;100.00
20394;BME280;10356;50.544;9.642;2023-05-23T06:22:55;98228.69;;;15.34;100.00
20394;BME280;10356;50.544;9.642;2023-05-23T06:25:21;98236.25;;;15.37;100.00
20394;BME280;10356;50.544;9.642;2023-05-23T06:27:48;98230.00;;;15.48;99.66
20394;BME280;10356;50.544;9.642;2023-05-23T06:30:15;98229.88;;;15.49;98.44
20394;BME280;10356;50.544;9.642;2023-05-23T06:32:42;98228.66;;;15.44;98.71
20394;BME280;10356;50.544;9.642;2023-05-23T06:35:08;98233.97;;;15.52;99.65
20394;BME280;10356;50.544;9.642;2023-05-23T06:37:36;98236.00;;;15.58;97.67
20394;BME280;10356;50.544;9.642;2023-05-23T06:40:04;98232.94;;;15.62;97.55
20394;BME280;10356;50.544;9.642;2023-05-23T06:42:31;98238.59;;;15.67;97.06
20394;BME280;10356;50.544;9.642;2023-05-23T06:44:57;98241.22;;;15.67;97.14
20394;BME280;10356;50.544;9.642;2023-05-23T06:47:24;98231.50;;;15.68;95.94
20394;BME280;10356;50.544;9.642;2023-05-23T06:49:50;98230.38;;;15.70;96.39
20394;BME280;10356;50.544;9.642;2023-05-23T06:52:17;98219.25;;;15.76;95.49
20394;BME280;10356;50.544;9.642;2023-05-23T06:54:45;98221.19;;;16.10;96.73
20394;BME280;10356;50.544;9.642;2023-05-23T06:57:11;98225.97;;;16.65;93.13
20394;BME280;10356;50.544;9.642;2023-05-23T06:59:38;98219.34;;;16.95;88.92
20394;BME280;10356;50.544;9.642;2023-05-23T07:02:04;98225.38;;;17.37;87.08
20394;BME280;10356;50.544;9.642;2023-05-23T07:04:31;98227.44;;;17.84;84.54
20394;BME280;10356;50.544;9.642;2023-05-23T07:06:58;98225.78;;;18.15;83.94
20394;BME280;10356;50.544;9.642;2023-05-23T07:09:24;98230.41;;;18.21;80.02
20394;BME280;10356;50.544;9.642;2023-05-23T07:11:52;98228.88;;;18.42;78.30
20394;BME280;10356;50.544;9.642;2023-05-23T07:14:18;98223.47;;;18.28;79.25
20394;BME280;10356;50.544;9.642;2023-05-23T07:16:45;98230.91;;;17.92;79.72
20394;BME280;10356;50.544;9.642;2023-05-23T07:19:12;98238.16;;;17.74;79.85
20394;BME280;10356;50.544;9.642;2023-05-23T07:21:38;98238.91;;;17.42;80.71
20394;BME280;10356;50.544;9.642;2023-05-23T07:24:05;98232.63;;;17.35;80.82
20394;BME280;10356;50.544;9.642;2023-05-23T07:26:31;98238.53;;;17.29;82.49
20394;BME280;10356;50.544;9.642;2023-05-23T07:28:59;98246.09;;;17.24;83.91
20394;BME280;10356;50.544;9.642;2023-05-23T07:31:26;98236.50;;;17.07;83.88
20394;BME280;10356;50.544;9.642;2023-05-23T07:33:52;98234.19;;;17.04;84.75
20394;BME280;10356;50.544;9.642;2023-05-23T07:36:19;98241.75;;;17.07;83.30
20394;BME280;10356;50.544;9.642;2023-05-23T07:38:46;98246.09;;;17.24;83.24
20394;BME280;10356;50.544;9.642;2023-05-23T07:41:13;98244.44;;;17.23;82.84
20394;BME280;10356;50.544;9.642;2023-05-23T07:43:39;98242.41;;;17.09;82.62
20394;BME280;10356;50.544;9.642;2023-05-23T07:46:07;98237.53;;;17.14;84.95
20394;BME280;10356;50.544;9.642;2023-05-23T07:48:33;98238.03;;;17.26;82.59
20394;BME280;10356;50.544;9.642;2023-05-23T07:51:00;98247.09;;;17.31;83.50
20394;BME280;10356;50.544;9.642;2023-05-23T07:53:26;98245.31;;;17.40;83.71
20394;BME280;10356;50.544;9.642;2023-05-23T07:55:53;98246.44;;;17.37;83.32
20394;BME280;10356;50.544;9.642;2023-05-23T07:58:19;98245.28;;;17.24;82.79
20394;BME280;10356;50.544;9.642;2023-05-23T08:00:47;98243.94;;;17.20;83.00
20394;BME280;10356;50.544;9.642;2023-05-23T08:03:15;98246.09;;;17.16;83.03
20394;BME280;10356;50.544;9.642;2023-05-23T08:05:43;98248.22;;;17.13;83.89
20394;BME280;10356;50.544;9.642;2023-05-23T08:08:09;98252.97;;;17.09;84.21
20394;BME280;10356;50.544;9.642;2023-05-23T08:10:36;98261.47;;;16.95;83.79
20394;BME280;10356;50.544;9.642;2023-05-23T08:13:04;98263.78;;;16.98;83.79
20394;BME280;10356;50.544;9.642;2023-05-23T08:15:31;98264.13;;;17.03;83.94
20394;BME280;10356;50.544;9.642;2023-05-23T08:17:57;98266.50;;;17.22;82.33
20394;BME280;10356;50.544;9.642;2023-05-23T08:20:26;98267.66;;;17.20;83.44
20394;BME280;10356;50.544;9.642;2023-05-23T08:22:56;98266.19;;;17.25;82.77
20394;BME280;10356;50.544;9.642;2023-05-23T08:25:23;98268.97;;;17.24;81.06
20394;BME280;10356;50.544;9.642;2023-05-23T08:27:49;98267.81;;;17.18;81.91
20394;BME280;10356;50.544;9.642;2023-05-23T08:30:16;98267.88;;;17.34;81.64
20394;BME280;10356;50.544;9.642;2023-05-23T08:32:42;98272.00;;;17.37;82.36
20394;BME280;10356;50.544;9.642;2023-05-23T08:35:09;98266.34;;;17.24;82.71
20394;BME280;10356;50.544;9.642;2023-05-23T08:37:37;98278.97;;;17.12;81.57
20394;BME280;10356;50.544;9.642;2023-05-23T08:40:06;98270.22;;;17.04;83.08
20394;BME280;10356;50.544;9.642;2023-05-23T08:42:38;98282.88;;;17.00;84.54
20394;BME280;10356;50.544;9.642;2023-05-23T08:45:06;98285.19;;;17.03;83.98
20394;BME280;10356;50.544;9.642;2023-05-23T08:47:33;98288.31;;;16.99;83.05
20394;BME280;10356;50.544;9.642;2023-05-23T08:50:03;98283.56;;;17.02;82.53
20394;BME280;10356;50.544;9.642;2023-05-23T08:52:32;98296.25;;;17.07;83.69
20394;BME280;10356;50.544;9.642;2023-05-23T08:55:01;98288.53;;;17.21;82.77
20394;BME280;10356;50.544;9.642;2023-05-23T08:57:28;98287.28;;;17.33;83.11
20394;BME280;10356;50.544;9.642;2023-05-23T08:59:55;98294.56;;;17.47;81.01
20394;BME280;10356;50.544;9.642;2023-05-23T09:02:23;98295.03;;;17.35;82.17
20394;BME280;10356;50.544;9.642;2023-05-23T09:04:50;98286.13;;;17.36;81.88
20394;BME280;10356;50.544;9.642;2023-05-23T09:07:17;98295.13;;;17.51;82.03
20394;BME280;10356;50.544;9.642;2023-05-23T09:09:44;98297.09;;;17.49;81.75
20394;BME280;10356;50.544;9.642;2023-05-23T09:12:13;98300.16;;;17.44;82.11
20394;BME280;10356;50.544;9.642;2023-05-23T09:14:40;98305.03;;;17.31;82.70
20394;BME280;10356;50.544;9.642;2023-05-23T09:17:08;98298.84;;;17.40;83.09
20394;BME280;10356;50.544;9.642;2023-05-23T09:19:39;98301.31;;;17.42;84.64
20394;BME280;10356;50.544;9.642;2023-05-23T09:22:06;98305.44;;;17.44;82.66
20394;BME280;10356;50.544;9.642;2023-05-23T09:24:33;98301.13;;;17.43;83.14
20394;BME280;10356;50.544;9.642;2023-05-23T09:27:00;98315.28;;;17.34;83.49
20394;BME280;10356;50.544;9.642;2023-05-23T09:29:29;98306.06;;;17.38;81.57
20394;BME280;10356;50.544;9.642;2023-05-23T09:31:58;98306.03;;;17.30;82.04
20394;BME280;10356;50.544;9.642;2023-05-23T09:34:26;98307.72;;;17.39;81.88
20394;BME280;10356;50.544;9.642;2023-05-23T09:36:54;98308.00;;;17.28;82.30
20394;BME280;10356;50.544;9.642;2023-05-23T09:39:21;98319.06;;;16.98;84.68
20394;BME280;10356;50.544;9.642;2023-05-23T09:41:47;98323.16;;;16.93;86.53
20394;BME280;10356;50.544;9.642;2023-05-23T09:44:21;98319.28;;;16.79;88.89
20394;BME280;10356;50.544;9.642;2023-05-23T09:46:50;98323.94;;;16.59;90.65
20394;BME280;10356;50.544;9.642;2023-05-23T09:49:17;98313.13;;;16.45;91.61
20394;BME280;10356;50.544;9.642;2023-05-23T09:51:56;98325.13;;;16.65;92.17
20394;BME280;10356;50.544;9.642;2023-05-23T09:54:22;98315.44;;;16.48;91.72
20394;BME280;10356;50.544;9.642;2023-05-23T09:56:52;98317.88;;;16.41;91.99
20394;BME280;10356;50.544;9.642;2023-05-23T09:59:20;98328.22;;;16.43;92.90
20394;BME280;10356;50.544;9.642;2023-05-23T10:01:51;98319.66;;;16.41;91.72
20394;BME280;10356;50.544;9.642;2023-05-23T10:04:20;98328.09;;;16.27;91.66
20394;BME280;10356;50.544;9.642;2023-05-23T10:06:50;98322.09;;;16.17;93.51
20394;BME280;10356;50.544;9.642;2023-05-23T10:09:19;98327.81;;;16.30;93.36
20394;BME280;10356;50.544;9.642;2023-05-23T10:12:32;98321.31;;;16.42;92.28
20394;BME280;10356;50.544;9.642;2023-05-23T10:15:03;98327.47;;;16.50;92.62
20394;BME280;10356;50.544;9.642;2023-05-23T10:17:38;98324.91;;;16.58;92.97
20394;BME280;10356;50.544;9.642;2023-05-23T10:20:09;98329.72;;;16.63;90.35
20394;BME280;10356;50.544;9.642;2023-05-23T10:22:36;98329.72;;;16.63;90.30
20394;BME280;10356;50.544;9.642;2023-05-23T10:25:04;98328.59;;;16.65;90.54
20394;BME280;10356;50.544;9.642;2023-05-23T10:27:32;98334.19;;;16.70;89.63
20394;BME280;10356;50.544;9.642;2023-05-23T10:29:58;98337.25;;;16.58;89.63
20394;BME280;10356;50.544;9.642;2023-05-23T10:32:26;98339.81;;;16.50;90.17
20394;BME280;10356;50.544;9.642;2023-05-23T10:34:57;98339.34;;;16.37;91.20
20394;BME280;10356;50.544;9.642;2023-05-23T10:37:30;98344.13;;;16.16;90.37
20394;BME280;10356;50.544;9.642;2023-05-23T10:40:02;98348.69;;;16.31;90.20
20394;BME280;10356;50.544;9.642;2023-05-23T10:42:41;98341.56;;;16.24;90.26
20394;BME280;10356;50.544;9.642;2023-05-23T10:45:14;98345.53;;;16.28;91.26
20394;BME280;10356;50.544;9.642;2023-05-23T10:47:41;98345.53;;;16.28;89.54
20394;BME280;10356;50.544;9.642;2023-05-23T10:50:12;98343.88;;;16.27;88.51
20394;BME280;10356;50.544;9.642;2023-05-23T10:52:39;98343.66;;;16.38;87.65
20394;BME280;10356;50.544;9.642;2023-05-23T10:55:12;98353.63;;;16.34;88.74
20394;BME280;10356;50.544;9.642;2023-05-23T10:57:38;98352.34;;;16.38;88.15
20394;BME280;10356;50.544;9.642;2023-05-23T11:00:12;98354.63;;;16.33;89.72
20394;BME280;10356;50.544;9.642;2023-05-23T11:02:45;98360.50;;;16.27;91.13
20394;BME280;10356;50.544;9.642;2023-05-23T11:05:23;98363.94;;;16.10;90.15
20394;BME280;10356;50.544;9.642;2023-05-23T11:08:09;98365.75;;;16.10;90.83
20394;BME280;10356;50.544;9.642;2023-05-23T11:10:54;98374.84;;;15.98;89.51
20394;BME280;10356;50.544;9.642;2023-05-23T11:13:22;98372.56;;;15.85;91.08
20394;BME280;10356;50.544;9.642;2023-05-23T11:15:49;98382.41;;;15.83;91.73
20394;BME280;10356;50.544;9.642;2023-05-23T11:18:20;98380.91;;;15.80;90.99
20394;BME280;10356;50.544;9.642;2023-05-23T11:20:51;98386.91;;;15.73;91.89
20394;BME280;10356;50.544;9.642;2023-05-23T11:23:17;98382.06;;;15.68;92.00
20394;BME280;10356;50.544;9.642;2023-05-23T11:25:47;98389.88;;;15.60;91.26
20394;BME280;10356;50.544;9.642;2023-05-23T11:28:14;98382.94;;;15.32;89.70
20394;BME280;10356;50.544;9.642;2023-05-23T11:30:42;98387.03;;;15.44;90.56
20394;BME280;10356;50.544;9.642;2023-05-23T11:33:10;98387.44;;;15.49;89.06
20394;BME280;10356;50.544;9.642;2023-05-23T11:35:39;98397.66;;;15.52;89.53
20394;BME280;10356;50.544;9.642;2023-05-23T11:38:07;98398.34;;;15.54;89.78
20394;BME280;10356;50.544;9.642;2023-05-23T11:40:35;98403.59;;;15.54;89.46
20394;BME280;10356;50.544;9.642;2023-05-23T11:43:03;98403.03;;;15.41;90.72
20394;BME280;10356;50.544;9.642;2023-05-23T11:45:30;98412.34;;;15.45;90.13
20394;BME280;10356;50.544;9.642;2023-05-23T11:47:57;98414.13;;;15.45;87.91
20394;BME280;10356;50.544;9.642;2023-05-23T11:50:24;98419.66;;;15.51;87.70
20394;BME280;10356;50.544;9.642;2023-05-23T11:52:50;98416.28;;;15.59;86.44
20394;BME280;10356;50.544;9.642;2023-05-23T11:55:19;98420.31;;;15.80;84.64
20394;BME280;10356;50.544;9.642;2023-05-23T11:57:47;98407.88;;;16.00;83.72
20394;BME280;10356;50.544;9.642;2023-05-23T12:00:15;98418.25;;;16.37;83.16
20394;BME280;10356;50.544;9.642;2023-05-23T12:02:43;98415.63;;;16.54;80.17
20394;BME280;10356;50.544;9.642;2023-05-23T12:05:11;98417.25;;;16.91;79.97
20394;BME280;10356;50.544;9.642;2023-05-23T12:07:39;98421.47;;;17.09;78.22
20394;BME280;10356;50.544;9.642;2023-05-23T12:10:07;98418.03;;;17.09;76.49
20394;BME280;10356;50.544;9.642;2023-05-23T12:12:35;98426.44;;;16.69;79.22
20394;BME280;10356;50.544;9.642;2023-05-23T12:15:04;98419.16;;;16.63;77.63
20394;BME280;10356;50.544;9.642;2023-05-23T12:17:31;98417.53;;;16.62;79.43
20394;BME280;10356;50.544;9.642;2023-05-23T12:19:58;98426.81;;;16.39;80.00
20394;BME280;10356;50.544;9.642;2023-05-23T12:22:25;98424.19;;;16.21;81.17
20394;BME280;10356;50.544;9.642;2023-05-23T12:24:52;98432.59;;;16.25;82.90
20394;BME280;10356;50.544;9.642;2023-05-23T12:27:26;98427.75;;;16.30;82.62
20394;BME280;10356;50.544;9.642;2023-05-23T12:30:03;98426.44;;;16.16;83.89
20394;BME280;10356;50.544;9.642;2023-05-23T12:32:31;98428.53;;;15.95;83.46
20394;BME280;10356;50.544;9.642;2023-05-23T12:34:57;98432.06;;;16.04;83.39
20394;BME280;10356;50.544;9.642;2023-05-23T12:37:24;98423.59;;;16.10;84.92
20394;BME280;10356;50.544;9.642;2023-05-23T12:39:51;98435.56;;;16.22;84.21
20394;BME280;10356;50.544;9.642;2023-05-23T12:42:17;98438.69;;;16.08;82.87
20394;BME280;10356;50.544;9.642;2023-05-23T12:44:43;98438.09;;;16.14;84.49
20394;BME280;10356;50.544;9.642;2023-05-23T12:47:12;98436.94;;;16.16;82.88
20394;BME280;10356;50.544;9.642;2023-05-23T12:49:39;98447.00;;;16.03;84.84
20394;BME280;10356;50.544;9.642;2023-05-23T12:52:06;98445.81;;;15.98;84.45
20394;BME280;10356;50.544;9.642;2023-05-23T12:54:32;98450.78;;;15.73;85.59
20394;BME280;10356;50.544;9.642;2023-05-23T12:56:58;98454.28;;;15.91;85.23
20394;BME280;10356;50.544;9.642;2023-05-23T12:59:25;98453.47;;;15.54;85.60